sensor_id;sensor_type;location;lat;lon;timestamp;temperature;humidity
17202;DHT22;8717;53.588;10.176;2023-01-29T00:00:31;2.40;99.90
17202;DHT22;8717;53.588;10.176;2023-01-29T00:02:58;2.40;99.90
17202;DHT22;8717;53.588;10.176;2023-01-29T00:05:26;2.40;99.90
17202;DHT22;8717;53.588;10.176;2023-01-29T00:07:53;2.40;99.90
17202;DHT22;8717;53.588;10.176;2023-01-29T00:10:24;2.40;99.90
17202;DHT22;8717;53.588;10.176;2023-01-29T00:12:53;2.40;99.90
17202;DHT22;8717;53.588;10.176;2023-01-29T00:15:20;2.40;99.90
17202;DHT22;8717;53.588;10.176;2023-01-29T00:17:47;2.40;99.90
17202;DHT22;8717;53.588;10.176;2023-01-29T00:20:15;2.40;99.90
17202;DHT22;8717;53.588;10.176;2023-01-29T00:22:44;2.40;99.90
17202;DHT22;8717;53.588;10.176;2023-01-29T00:25:10;2.40;99.90
17202;DHT22;8717;53.588;10.176;2023-01-29T00:27:37;2.50;99.90
17202;DHT22;8717;53.588;10.176;2023-01-29T00:30:05;2.50;99.90
17202;DHT22;8717;53.588;10.176;2023-01-29T00:32:38;2.40;99.90
17202;DHT22;8717;53.588;10.176;2023-01-29T00:35:06;2.40;99.90
17202;DHT22;8717;53.588;10.176;2023-01-29T00:37:33;2.50;99.90
17202;DHT22;8717;53.588;10.176;2023-01-29T00:40:02;2.40;99.90
17202;DHT22;8717;53.588;10.176;2023-01-29T00:42:29;2.40;99.90
17202;DHT22;8717;53.588;10.176;2023-01-29T00:45:13;2.40;99.90
17202;DHT22;8717;53.588;10.176;2023-01-29T00:47:44;2.50;99.90
17202;DHT22;8717;53.588;10.176;2023-01-29T00:50:11;2.50;99.90
17202;DHT22;8717;53.588;10.176;2023-01-29T00:52:39;2.50;99.90
17202;DHT22;8717;53.588;10.176;2023-01-29T00:55:09;2.50;99.90
17202;DHT22;8717;53.588;10.176;2023-01-29T00:57:37;2.50;99.90
17202;DHT22;8717;53.588;10.176;2023-01-29T01:00:06;2.50;99.90
17202;DHT22;8717;53.588;10.176;2023-01-29T01:02:33;2.50;99.90
17202;DHT22;8717;53.588;10.176;2023-01-29T01:05:18;2.60;99.90
17202;DHT22;8717;53.588;10.176;2023-01-29T01:07:45;2.50;99.90
17202;DHT22;8717;53.588;10.176;2023-01-29T01:10:16;2.60;99.90
17202;DHT22;8717;53.588;10.176;2023-01-29T01:12:45;2.60;99.90
17202;DHT22;8717;53.588;10.176;2023-01-29T01:15:12;2.60;99.90
17202;DHT22;8717;53.588;10.176;2023-01-29T01:17:39;2.60;99.90
17202;DHT22;8717;53.588;10.176;2023-01-29T01:20:08;2.60;99.90
17202;DHT22;8717;53.588;10.176;2023-01-29T01:22:35;2.60;99.90
17202;DHT22;8717;53.588;10.176;2023-01-29T01:25:03;2.60;99.90
17202;DHT22;8717;53.588;10.176;2023-01-29T01:27:31;2.60;99.90
17202;DHT22;8717;53.588;10.176;2023-01-29T01:29:59;2.60;99.90
17202;DHT22;8717;53.588;10.176;2023-01-29T01:32:26;2.60;99.90
17202;DHT22;8717;53.588;10.176;2023-01-29T01:34:53;2.60;99.90
17202;DHT22;8717;53.588;10.176;2023-01-29T01:37:22;2.60;99.90
17202;DHT22;8717;53.588;10.176;2023-01-29T01:39:49;2.60;99.90
17202;DHT22;8717;53.588;10.176;2023-01-29T01:42:16;2.60;99.90
17202;DHT22;8717;53.588;10.176;2023-01-29T01:44:58;2.60;99.90
17202;DHT22;8717;53.588;10.176;2023-01-29T01:47:36;2.70;99.90
17202;DHT22;8717;53.588;10.176;2023-01-29T01:50:07;2.70;99.90
17202;DHT22;8717;53.588;10.176;2023-01-29T01:52:38;2.70;99.90
17202;DHT22;8717;53.588;10.176;2023-01-29T01:55:08;2.70;99.90
17202;DHT22;8717;53.588;10.176;2023-01-29T01:57:39;2.70;99.90
17202;DHT22;8717;53.588;10.176;2023-01-29T02:00:11;2.70;99.90
17202;DHT22;8717;53.588;10.176;2023-01-29T02:02:42;2.70;99.90
17202;DHT22;8717;53.588;10.176;2023-01-29T02:05:28;2.70;99.90
17202;DHT22;8717;53.588;10.176;2023-01-29T02:08:20;2.70;99.90
17202;DHT22;8717;53.588;10.176;2023-01-29T02:11:07;2.70;99.90
17202;DHT22;8717;53.588;10.176;2023-01-29T02:13:35;2.80;99.90
17202;DHT22;8717;53.588;10.176;2023-01-29T02:16:04;2.70;99.90
17202;DHT22;8717;53.588;10.176;2023-01-29T02:18:33;2.70;99.90
17202;DHT22;8717;53.588;10.176;2023-01-29T02:21:16;2.70;99.90
17202;DHT22;8717;53.588;10.176;2023-01-29T02:24:16;2.70;99.90
17202;DHT22;8717;53.588;10.176;2023-01-29T02:26:54;2.80;99.90
17202;DHT22;8717;53.588;10.176;2023-01-29T02:29:34;2.80;99.90
17202;DHT22;8717;53.588;10.176;2023-01-29T02:32:14;2.80;99.90
17202;DHT22;8717;53.588;10.176;2023-01-29T02:34:47;2.80;99.90
17202;DHT22;8717;53.588;10.176;2023-01-29T02:37:38;2.80;99.90
17202;DHT22;8717;53.588;10.176;2023-01-29T02:40:11;2.80;99.90
17202;DHT22;8717;53.588;10.176;2023-01-29T02:42:46;2.80;99.90
17202;DHT22;8717;53.588;10.176;2023-01-29T02:45:21;2.80;99.90
17202;DHT22;8717;53.588;10.176;2023-01-29T02:47:55;2.80;99.90
17202;DHT22;8717;53.588;10.176;2023-01-29T02:50:29;2.80;99.90
17202;DHT22;8717;53.588;10.176;2023-01-29T02:53:01;2.80;99.90
17202;DHT22;8717;53.588;10.176;2023-01-29T02:55:34;2.80;99.90
17202;DHT22;8717;53.588;10.176;2023-01-29T02:58:06;2.80;99.90
17202;DHT22;8717;53.588;10.176;2023-01-29T03:00:39;2.80;99.90
17202;DHT22;8717;53.588;10.176;2023-01-29T03:03:13;2.80;99.90
17202;DHT22;8717;53.588;10.176;2023-01-29T03:05:46;2.80;99.90
17202;DHT22;8717;53.588;10.176;2023-01-29T03:08:22;2.80;99.90
17202;DHT22;8717;53.588;10.176;2023-01-29T03:11:03;2.80;99.90
17202;DHT22;8717;53.588;10.176;2023-01-29T03:13:37;2.80;99.90
17202;DHT22;8717;53.588;10.176;2023-01-29T03:16:13;2.80;99.90
17202;DHT22;8717;53.588;10.176;2023-01-29T03:18:46;2.80;99.90
17202;DHT22;8717;53.588;10.176;2023-01-29T03:21:20;2.80;99.90
17202;DHT22;8717;53.588;10.176;2023-01-29T03:24:09;2.80;99.90
17202;DHT22;8717;53.588;10.176;2023-01-29T03:27:00;2.80;99.90
17202;DHT22;8717;53.588;10.176;2023-01-29T03:29:45;2.80;99.90
17202;DHT22;8717;53.588;10.176;2023-01-29T03:32:58;2.80;99.90
17202;DHT22;8717;53.588;10.176;2023-01-29T03:35:34;2.80;99.90
17202;DHT22;8717;53.588;10.176;2023-01-29T03:38:05;2.80;99.90
17202;DHT22;8717;53.588;10.176;2023-01-29T03:40:37;2.80;99.90
17202;DHT22;8717;53.588;10.176;2023-01-29T03:43:12;2.80;99.90
17202;DHT22;8717;53.588;10.176;2023-01-29T03:45:49;2.90;99.90
17202;DHT22;8717;53.588;10.176;2023-01-29T03:48:29;2.80;99.90
17202;DHT22;8717;53.588;10.176;2023-01-29T03:51:04;2.90;99.90
17202;DHT22;8717;53.588;10.176;2023-01-29T03:53:40;2.80;99.90
17202;DHT22;8717;53.588;10.176;2023-01-29T03:56:17;2.80;99.90
17202;DHT22;8717;53.588;10.176;2023-01-29T03:58:49;2.80;99.90
17202;DHT22;8717;53.588;10.176;2023-01-29T04:01:29;2.90;99.90
17202;DHT22;8717;53.588;10.176;2023-01-29T04:04:04;2.80;99.90
17202;DHT22;8717;53.588;10.176;2023-01-29T04:06:37;2.90;99.90
17202;DHT22;8717;53.588;10.176;2023-01-29T04:09:11;2.90;99.90
17202;DHT22;8717;53.588;10.176;2023-01-29T04:11:44;2.90;99.90
17202;DHT22;8717;53.588;10.176;2023-01-29T04:14:13;2.90;99.90
17202;DHT22;8717;53.588;10.176;2023-01-29T04:16:45;2.90;99.90
17202;DHT22;8717;53.588;10.176;2023-01-29T04:19:19;2.90;99.90
17202;DHT22;8717;53.588;10.176;2023-01-29T04:21:49;2.90;99.90
17202;DHT22;8717;53.588;10.176;2023-01-29T04:24:18;2.90;99.90
17202;DHT22;8717;53.588;10.176;2023-01-29T04:26:54;2.90;99.90
17202;DHT22;8717;53.588;10.176;2023-01-29T04:29:39;2.90;99.90
17202;DHT22;8717;53.588;10.176;2023-01-29T04:32:14;2.90;99.90
17202;DHT22;8717;53.588;10.176;2023-01-29T04:34:52;2.90;99.90
17202;DHT22;8717;53.588;10.176;2023-01-29T04:37:30;2.90;99.90
17202;DHT22;8717;53.588;10.176;2023-01-29T04:40:05;3.00;99.90
17202;DHT22;8717;53.588;10.176;2023-01-29T04:42:36;2.90;99.90
17202;DHT22;8717;53.588;10.176;2023-01-29T04:45:12;2.90;99.90
17202;DHT22;8717;53.588;10.176;2023-01-29T04:47:47;2.90;99.90
17202;DHT22;8717;53.588;10.176;2023-01-29T04:50:22;2.90;99.90
17202;DHT22;8717;53.588;10.176;2023-01-29T04:52:56;2.90;99.90
17202;DHT22;8717;53.588;10.176;2023-01-29T04:55:31;2.90;99.90
17202;DHT22;8717;53.588;10.176;2023-01-29T04:58:04;2.80;99.90
17202;DHT22;8717;53.588;10.176;2023-01-29T05:00:35;2.90;99.90
17202;DHT22;8717;53.588;10.176;2023-01-29T05:03:04;2.90;99.90
17202;DHT22;8717;53.588;10.176;2023-01-29T05:05:35;2.90;99.90
17202;DHT22;8717;53.588;10.176;2023-01-29T05:08:06;2.80;99.90
17202;DHT22;8717;53.588;10.176;2023-01-29T05:10:34;2.90;99.90
17202;DHT22;8717;53.588;10.176;2023-01-29T05:13:04;2.80;99.90
17202;DHT22;8717;53.588;10.176;2023-01-29T05:15:35;2.80;99.90
17202;DHT22;8717;53.588;10.176;2023-01-29T05:18:03;2.80;99.90
17202;DHT22;8717;53.588;10.176;2023-01-29T05:20:35;2.80;99.90
17202;DHT22;8717;53.588;10.176;2023-01-29T05:23:08;2.80;99.90
17202;DHT22;8717;53.588;10.176;2023-01-29T05:25:36;2.80;99.90
17202;DHT22;8717;53.588;10.176;2023-01-29T05:28:03;2.70;99.90
17202;DHT22;8717;53.588;10.176;2023-01-29T05:30:29;2.70;99.90
17202;DHT22;8717;53.588;10.176;2023-01-29T05:32:56;2.70;99.90
17202;DHT22;8717;53.588;10.176;2023-01-29T05:35:23;2.70;99.90
17202;DHT22;8717;53.588;10.176;2023-01-29T05:37:51;2.80;99.90
17202;DHT22;8717;53.588;10.176;2023-01-29T05:40:18;2.70;99.90
17202;DHT22;8717;53.588;10.176;2023-01-29T05:42:44;2.60;99.90
17202;DHT22;8717;53.588;10.176;2023-01-29T05:45:13;2.70;99.90
17202;DHT22;8717;53.588;10.176;2023-01-29T05:47:40;2.60;99.90
17202;DHT22;8717;53.588;10.176;2023-01-29T05:50:07;2.70;99.90
17202;DHT22;8717;53.588;10.176;2023-01-29T05:52:34;2.60;99.90
17202;DHT22;8717;53.588;10.176;2023-01-29T05:55:02;2.60;99.90
17202;DHT22;8717;53.588;10.176;2023-01-29T05:57:30;2.60;99.90
17202;DHT22;8717;53.588;10.176;2023-01-29T05:59:56;2.60;99.90
17202;DHT22;8717;53.588;10.176;2023-01-29T06:02:25;2.60;99.90
17202;DHT22;8717;53.588;10.176;2023-01-29T06:04:59;2.60;99.90
17202;DHT22;8717;53.588;10.176;2023-01-29T06:07:29;2.70;99.90
17202;DHT22;8717;53.588;10.176;2023-01-29T06:09:56;2.50;99.90
17202;DHT22;8717;53.588;10.176;2023-01-29T06:12:27;2.60;99.90
17202;DHT22;8717;53.588;10.176;2023-01-29T06:14:54;2.60;99.90
17202;DHT22;8717;53.588;10.176;2023-01-29T06:17:21;2.50;99.90
17202;DHT22;8717;53.588;10.176;2023-01-29T06:19:48;2.50;99.90
17202;DHT22;8717;53.588;10.176;2023-01-29T06:22:15;2.50;99.90
17202;DHT22;8717;53.588;10.176;2023-01-29T06:24:42;2.50;99.90
17202;DHT22;8717;53.588;10.176;2023-01-29T06:27:09;2.50;99.90
17202;DHT22;8717;53.588;10.176;2023-01-29T06:29:37;2.50;99.90
17202;DHT22;8717;53.588;10.176;2023-01-29T06:32:04;2.50;99.90
17202;DHT22;8717;53.588;10.176;2023-01-29T06:34:31;2.50;99.90
17202;DHT22;8717;53.588;10.176;2023-01-29T06:36:57;2.50;99.90
17202;DHT22;8717;53.588;10.176;2023-01-29T06:39:24;2.50;99.90
17202;DHT22;8717;53.588;10.176;2023-01-29T06:41:51;2.50;99.90
17202;DHT22;8717;53.588;10.176;2023-01-29T06:44:17;2.40;99.90
17202;DHT22;8717;53.588;10.176;2023-01-29T06:46:46;2.50;99.90
17202;DHT22;8717;53.588;10.176;2023-01-29T06:49:13;2.50;99.90
17202;DHT22;8717;53.588;10.176;2023-01-29T06:51:42;2.40;99.90
17202;DHT22;8717;53.588;10.176;2023-01-29T06:54:10;2.40;99.90
17202;DHT22;8717;53.588;10.176;2023-01-29T06:56:37;2.40;99.90
17202;DHT22;8717;53.588;10.176;2023-01-29T06:59:03;2.40;99.90
17202;DHT22;8717;53.588;10.176;2023-01-29T07:01:33;2.30;99.90
17202;DHT22;8717;53.588;10.176;2023-01-29T07:04:01;2.30;99.90
17202;DHT22;8717;53.588;10.176;2023-01-29T07:06:29;2.30;99.90
17202;DHT22;8717;53.588;10.176;2023-01-29T07:08:55;2.30;99.90
17202;DHT22;8717;53.588;10.176;2023-01-29T07:11:22;2.30;99.90
17202;DHT22;8717;53.588;10.176;2023-01-29T07:13:49;2.30;99.90
17202;DHT22;8717;53.588;10.176;2023-01-29T07:16:15;2.30;99.90
17202;DHT22;8717;53.588;10.176;2023-01-29T07:18:43;2.20;99.90
17202;DHT22;8717;53.588;10.176;2023-01-29T07:21:11;2.20;99.90
17202;DHT22;8717;53.588;10.176;2023-01-29T07:23:38;2.30;99.90
17202;DHT22;8717;53.588;10.176;2023-01-29T07:26:05;2.30;99.90
17202;DHT22;8717;53.588;10.176;2023-01-29T07:28:35;2.30;99.90
17202;DHT22;8717;53.588;10.176;2023-01-29T07:31:02;2.30;99.90
17202;DHT22;8717;53.588;10.176;2023-01-29T07:33:30;2.30;99.90
17202;DHT22;8717;53.588;10.176;2023-01-29T07:35:57;2.30;99.90
17202;DHT22;8717;53.588;10.176;2023-01-29T07:38:25;2.30;99.90
17202;DHT22;8717;53.588;10.176;2023-01-29T07:40:54;2.30;99.90
17202;DHT22;8717;53.588;10.176;2023-01-29T07:43:20;2.40;99.90
17202;DHT22;8717;53.588;10.176;2023-01-29T07:45:49;2.30;99.90
17202;DHT22;8717;53.588;10.176;2023-01-29T07:48:15;2.40;99.90
17202;DHT22;8717;53.588;10.176;2023-01-29T07:50:42;2.30;99.90
17202;DHT22;8717;53.588;10.176;2023-01-29T07:53:11;2.40;99.90
17202;DHT22;8717;53.588;10.176;2023-01-29T07:55:43;2.40;99.90
17202;DHT22;8717;53.588;10.176;2023-01-29T07:58:10;2.30;99.90
17202;DHT22;8717;53.588;10.176;2023-01-29T08:00:37;2.40;99.90
17202;DHT22;8717;53.588;10.176;2023-01-29T08:03:06;2.30;99.90
17202;DHT22;8717;53.588;10.176;2023-01-29T08:05:33;2.30;99.90
17202;DHT22;8717;53.588;10.176;2023-01-29T08:08:01;2.40;99.90
17202;DHT22;8717;53.588;10.176;2023-01-29T08:10:28;2.40;99.90
17202;DHT22;8717;53.588;10.176;2023-01-29T08:12:58;2.30;99.90
17202;DHT22;8717;53.588;10.176;2023-01-29T08:15:25;2.30;99.90
17202;DHT22;8717;53.588;10.176;2023-01-29T08:17:53;2.30;99.90
17202;DHT22;8717;53.588;10.176;2023-01-29T08:20:20;2.40;99.90
17202;DHT22;8717;53.588;10.176;2023-01-29T08:22:47;2.40;99.90
17202;DHT22;8717;53.588;10.176;2023-01-29T08:25:14;2.40;99.90
17202;DHT22;8717;53.588;10.176;2023-01-29T08:27:41;2.40;99.90
17202;DHT22;8717;53.588;10.176;2023-01-29T08:30:11;2.40;99.90
17202;DHT22;8717;53.588;10.176;2023-01-29T08:32:37;2.50;99.90
17202;DHT22;8717;53.588;10.176;2023-01-29T08:35:05;2.50;99.90
17202;DHT22;8717;53.588;10.176;2023-01-29T08:37:33;2.60;99.90
17202;DHT22;8717;53.588;10.176;2023-01-29T08:40:00;2.60;99.90
17202;DHT22;8717;53.588;10.176;2023-01-29T08:42:26;2.60;99.90
17202;DHT22;8717;53.588;10.176;2023-01-29T08:44:53;2.60;99.90
17202;DHT22;8717;53.588;10.176;2023-01-29T08:47:23;2.70;99.90
17202;DHT22;8717;53.588;10.176;2023-01-29T08:49:50;2.70;99.90
17202;DHT22;8717;53.588;10.176;2023-01-29T08:52:16;2.70;99.90
17202;DHT22;8717;53.588;10.176;2023-01-29T08:54:43;2.70;99.90
17202;DHT22;8717;53.588;10.176;2023-01-29T08:57:12;2.70;99.90
17202;DHT22;8717;53.588;10.176;2023-01-29T08:59:38;2.80;99.90
17202;DHT22;8717;53.588;10.176;2023-01-29T09:02:05;2.80;99.90
17202;DHT22;8717;53.588;10.176;2023-01-29T09:04:33;2.80;99.90
17202;DHT22;8717;53.588;10.176;2023-01-29T09:07:00;2.80;99.90
17202;DHT22;8717;53.588;10.176;2023-01-29T09:09:26;2.80;99.90
17202;DHT22;8717;53.588;10.176;2023-01-29T09:11:53;2.80;99.90
17202;DHT22;8717;53.588;10.176;2023-01-29T09:14:20;2.80;99.90
17202;DHT22;8717;53.588;10.176;2023-01-29T09:16:46;2.90;99.90
17202;DHT22;8717;53.588;10.176;2023-01-29T09:19:17;2.80;99.90
17202;DHT22;8717;53.588;10.176;2023-01-29T09:21:45;2.90;99.90
17202;DHT22;8717;53.588;10.176;2023-01-29T09:24:14;2.90;99.90
17202;DHT22;8717;53.588;10.176;2023-01-29T09:26:40;2.90;99.90
17202;DHT22;8717;53.588;10.176;2023-01-29T09:29:08;2.90;99.90
17202;DHT22;8717;53.588;10.176;2023-01-29T09:31:35;3.00;99.90
17202;DHT22;8717;53.588;10.176;2023-01-29T09:34:02;3.00;99.90
17202;DHT22;8717;53.588;10.176;2023-01-29T09:36:29;3.00;99.90
17202;DHT22;8717;53.588;10.176;2023-01-29T09:38:57;3.00;99.90
17202;DHT22;8717;53.588;10.176;2023-01-29T09:41:32;3.00;99.90
17202;DHT22;8717;53.588;10.176;2023-01-29T09:44:08;3.00;99.90
17202;DHT22;8717;53.588;10.176;2023-01-29T09:46:39;3.00;99.90
17202;DHT22;8717;53.588;10.176;2023-01-29T09:49:10;3.00;99.90
17202;DHT22;8717;53.588;10.176;2023-01-29T09:51:45;3.00;99.90
17202;DHT22;8717;53.588;10.176;2023-01-29T09:54:20;3.00;99.90
17202;DHT22;8717;53.588;10.176;2023-01-29T09:56:54;3.00;99.90
17202;DHT22;8717;53.588;10.176;2023-01-29T09:59:22;3.00;99.90
17202;DHT22;8717;53.588;10.176;2023-01-29T10:01:58;3.00;99.90
17202;DHT22;8717;53.588;10.176;2023-01-29T10:04:48;3.00;99.90
17202;DHT22;8717;53.588;10.176;2023-01-29T10:07:41;3.10;99.90
17202;DHT22;8717;53.588;10.176;2023-01-29T10:10:24;3.10;99.90
17202;DHT22;8717;53.588;10.176;2023-01-29T10:13:04;3.10;99.90
17202;DHT22;8717;53.588;10.176;2023-01-29T10:15:39;3.10;99.90
17202;DHT22;8717;53.588;10.176;2023-01-29T10:18:42;3.20;99.90
17202;DHT22;8717;53.588;10.176;2023-01-29T10:21:23;3.20;99.90
17202;DHT22;8717;53.588;10.176;2023-01-29T10:23:58;3.20;99.90
17202;DHT22;8717;53.588;10.176;2023-01-29T10:26:28;3.20;99.90
17202;DHT22;8717;53.588;10.176;2023-01-29T10:28:57;3.20;99.90
17202;DHT22;8717;53.588;10.176;2023-01-29T10:31:28;3.20;99.90
17202;DHT22;8717;53.588;10.176;2023-01-29T10:34:00;3.20;99.90
17202;DHT22;8717;53.588;10.176;2023-01-29T10:36:33;3.20;99.90
17202;DHT22;8717;53.588;10.176;2023-01-29T10:39:01;3.20;99.90
17202;DHT22;8717;53.588;10.176;2023-01-29T10:41:46;3.30;99.90
17202;DHT22;8717;53.588;10.176;2023-01-29T10:44:26;3.30;99.90
17202;DHT22;8717;53.588;10.176;2023-01-29T10:47:12;3.30;99.90
17202;DHT22;8717;53.588;10.176;2023-01-29T10:50:04;3.20;99.90
17202;DHT22;8717;53.588;10.176;2023-01-29T10:52:47;3.30;99.90
17202;DHT22;8717;53.588;10.176;2023-01-29T10:55:28;3.30;99.90
17202;DHT22;8717;53.588;10.176;2023-01-29T10:58:06;3.30;99.90
17202;DHT22;8717;53.588;10.176;2023-01-29T11:00:35;3.30;99.90
17202;DHT22;8717;53.588;10.176;2023-01-29T11:03:12;3.40;99.90
17202;DHT22;8717;53.588;10.176;2023-01-29T11:05:46;3.30;99.90
17202;DHT22;8717;53.588;10.176;2023-01-29T11:08:19;3.30;99.90
17202;DHT22;8717;53.588;10.176;2023-01-29T11:10:51;3.30;99.90
17202;DHT22;8717;53.588;10.176;2023-01-29T11:13:26;3.30;99.90
17202;DHT22;8717;53.588;10.176;2023-01-29T11:15:55;3.30;99.90
17202;DHT22;8717;53.588;10.176;2023-01-29T11:18:21;3.40;99.90
17202;DHT22;8717;53.588;10.176;2023-01-29T11:21:02;3.40;99.90
17202;DHT22;8717;53.588;10.176;2023-01-29T11:23:30;3.40;99.90
17202;DHT22;8717;53.588;10.176;2023-01-29T11:26:00;3.40;99.90
17202;DHT22;8717;53.588;10.176;2023-01-29T11:28:41;3.40;99.90
17202;DHT22;8717;53.588;10.176;2023-01-29T11:31:21;3.30;99.90
17202;DHT22;8717;53.588;10.176;2023-01-29T11:33:49;3.40;99.90
17202;DHT22;8717;53.588;10.176;2023-01-29T11:36:35;3.40;99.90
17202;DHT22;8717;53.588;10.176;2023-01-29T11:39:18;3.40;99.90
17202;DHT22;8717;53.588;10.176;2023-01-29T11:41:52;3.40;99.90
17202;DHT22;8717;53.588;10.176;2023-01-29T11:44:26;3.40;99.90
17202;DHT22;8717;53.588;10.176;2023-01-29T11:46:53;3.40;99.90
17202;DHT22;8717;53.588;10.176;2023-01-29T11:49:29;3.40;99.90
17202;DHT22;8717;53.588;10.176;2023-01-29T11:51:59;3.40;99.90
17202;DHT22;8717;53.588;10.176;2023-01-29T11:54:30;3.40;99.90
17202;DHT22;8717;53.588;10.176;2023-01-29T11:56:57;3.50;99.90
17202;DHT22;8717;53.588;10.176;2023-01-29T11:59:37;3.50;99.90
17202;DHT22;8717;53.588;10.176;2023-01-29T12:02:21;3.60;99.90
17202;DHT22;8717;53.588;10.176;2023-01-29T12:04:51;3.70;99.90
17202;DHT22;8717;53.588;10.176;2023-01-29T12:07:18;3.60;99.90
17202;DHT22;8717;53.588;10.176;2023-01-29T12:09:52;3.70;99.90
17202;DHT22;8717;53.588;10.176;2023-01-29T12:12:28;3.70;99.90
17202;DHT22;8717;53.588;10.176;2023-01-29T12:15:08;3.70;99.90
17202;DHT22;8717;53.588;10.176;2023-01-29T12:17:42;3.70;99.90
17202;DHT22;8717;53.588;10.176;2023-01-29T12:20:16;3.70;99.90
17202;DHT22;8717;53.588;10.176;2023-01-29T12:22:46;3.70;99.90
17202;DHT22;8717;53.588;10.176;2023-01-29T12:25:20;3.70;99.90
17202;DHT22;8717;53.588;10.176;2023-01-29T12:27:55;3.70;99.90
17202;DHT22;8717;53.588;10.176;2023-01-29T12:30:28;3.70;99.90
17202;DHT22;8717;53.588;10.176;2023-01-29T12:33:01;3.70;99.90
17202;DHT22;8717;53.588;10.176;2023-01-29T12:35:34;3.70;99.90
17202;DHT22;8717;53.588;10.176;2023-01-29T12:38:08;3.80;99.90
17202;DHT22;8717;53.588;10.176;2023-01-29T12:40:39;3.70;99.90
17202;DHT22;8717;53.588;10.176;2023-01-29T12:43:13;3.70;99.90
17202;DHT22;8717;53.588;10.176;2023-01-29T12:45:49;3.70;99.90
17202;DHT22;8717;53.588;10.176;2023-01-29T12:48:20;3.70;99.90
17202;DHT22;8717;53.588;10.176;2023-01-29T12:50:49;3.70;99.90
17202;DHT22;8717;53.588;10.176;2023-01-29T12:53:24;3.70;99.90
17202;DHT22;8717;53.588;10.176;2023-01-29T12:55:54;3.70;99.90
17202;DHT22;8717;53.588;10.176;2023-01-29T12:58:28;3.70;99.90
17202;DHT22;8717;53.588;10.176;2023-01-29T13:01:02;3.70;99.90
17202;DHT22;8717;53.588;10.176;2023-01-29T13:03:33;3.70;99.90
17202;DHT22;8717;53.588;10.176;2023-01-29T13:06:07;3.70;99.90
17202;DHT22;8717;53.588;10.176;2023-01-29T13:08:39;3.70;99.90
17202;DHT22;8717;53.588;10.176;2023-01-29T13:11:12;3.60;99.90
17202;DHT22;8717;53.588;10.176;2023-01-29T13:13:43;3.70;99.90
17202;DHT22;8717;53.588;10.176;2023-01-29T13:16:19;3.70;99.90
17202;DHT22;8717;53.588;10.176;2023-01-29T13:18:50;3.70;99.90
17202;DHT22;8717;53.588;10.176;2023-01-29T13:21:21;3.70;99.90
17202;DHT22;8717;53.588;10.176;2023-01-29T13:23:52;3.70;99.90
17202;DHT22;8717;53.588;10.176;2023-01-29T13:26:23;3.70;99.90
17202;DHT22;8717;53.588;10.176;2023-01-29T13:28:51;3.70;99.90
17202;DHT22;8717;53.588;10.176;2023-01-29T13:31:27;3.70;99.90
17202;DHT22;8717;53.588;10.176;2023-01-29T13:34:06;3.70;99.90
17202;DHT22;8717;53.588;10.176;2023-01-29T13:36:36;3.70;99.90
17202;DHT22;8717;53.588;10.176;2023-01-29T13:39:13;3.70;99.90
17202;DHT22;8717;53.588;10.176;2023-01-29T13:41:42;3.60;99.90
17202;DHT22;8717;53.588;10.176;2023-01-29T13:44:20;3.60;99.90
17202;DHT22;8717;53.588;10.176;2023-01-29T13:46:52;3.60;99.90
17202;DHT22;8717;53.588;10.176;2023-01-29T13:49:33;3.60;99.90
17202;DHT22;8717;53.588;10.176;2023-01-29T13:52:15;3.60;99.90
17202;DHT22;8717;53.588;10.176;2023-01-29T13:54:53;3.60;99.90
17202;DHT22;8717;53.588;10.176;2023-01-29T13:57:46;3.60;99.90
17202;DHT22;8717;53.588;10.176;2023-01-29T14:00:47;3.60;99.90
17202;DHT22;8717;53.588;10.176;2023-01-29T14:06:42;3.60;99.90
17202;DHT22;8717;53.588;10.176;2023-01-29T14:12:38;3.60;99.90
17202;DHT22;8717;53.588;10.176;2023-01-29T14:15:15;3.60;99.90
17202;DHT22;8717;53.588;10.176;2023-01-29T14:17:54;3.50;99.90
17202;DHT22;8717;53.588;10.176;2023-01-29T14:20:25;3.50;99.90
17202;DHT22;8717;53.588;10.176;2023-01-29T14:22:56;3.50;99.90
17202;DHT22;8717;53.588;10.176;2023-01-29T14:25:30;3.50;99.90
17202;DHT22;8717;53.588;10.176;2023-01-29T14:28:00;3.40;99.90
17202;DHT22;8717;53.588;10.176;2023-01-29T14:30:30;3.40;99.90
17202;DHT22;8717;53.588;10.176;2023-01-29T14:32:57;3.40;99.90
17202;DHT22;8717;53.588;10.176;2023-01-29T14:35:28;3.40;99.90
17202;DHT22;8717;53.588;10.176;2023-01-29T14:38:03;3.40;99.90
17202;DHT22;8717;53.588;10.176;2023-01-29T14:40:31;3.40;99.90
17202;DHT22;8717;53.588;10.176;2023-01-29T14:43:03;3.40;99.90
17202;DHT22;8717;53.588;10.176;2023-01-29T14:45:33;3.30;99.90
17202;DHT22;8717;53.588;10.176;2023-01-29T14:48:34;3.40;99.90
17202;DHT22;8717;53.588;10.176;2023-01-29T14:51:07;3.40;99.90
17202;DHT22;8717;53.588;10.176;2023-01-29T14:53:47;3.30;99.90
17202;DHT22;8717;53.588;10.176;2023-01-29T14:56:20;3.30;99.90
17202;DHT22;8717;53.588;10.176;2023-01-29T14:58:52;3.30;99.90
17202;DHT22;8717;53.588;10.176;2023-01-29T15:01:24;3.30;99.90
17202;DHT22;8717;53.588;10.176;2023-01-29T15:03:55;3.30;99.90
17202;DHT22;8717;53.588;10.176;2023-01-29T15:06:31;3.30;99.90
17202;DHT22;8717;53.588;10.176;2023-01-29T15:09:12;3.30;99.90
17202;DHT22;8717;53.588;10.176;2023-01-29T15:11:46;3.20;99.90
17202;DHT22;8717;53.588;10.176;2023-01-29T15:14:19;3.20;99.90
17202;DHT22;8717;53.588;10.176;2023-01-29T15:16:59;3.30;99.90
17202;DHT22;8717;53.588;10.176;2023-01-29T15:19:30;3.20;99.90
17202;DHT22;8717;53.588;10.176;2023-01-29T15:22:04;3.20;99.90
17202;DHT22;8717;53.588;10.176;2023-01-29T15:24:33;3.10;99.90
17202;DHT22;8717;53.588;10.176;2023-01-29T15:27:03;3.10;99.90
17202;DHT22;8717;53.588;10.176;2023-01-29T15:29:31;3.10;99.90
17202;DHT22;8717;53.588;10.176;2023-01-29T15:31:58;3.10;99.90
17202;DHT22;8717;53.588;10.176;2023-01-29T15:34:25;3.10;99.90
17202;DHT22;8717;53.588;10.176;2023-01-29T15:36:52;3.10;99.90
17202;DHT22;8717;53.588;10.176;2023-01-29T15:39:21;3.10;99.90
17202;DHT22;8717;53.588;10.176;2023-01-29T15:41:50;3.00;99.90
17202;DHT22;8717;53.588;10.176;2023-01-29T15:44:29;3.00;99.90
17202;DHT22;8717;53.588;10.176;2023-01-29T15:46:58;3.00;99.90
17202;DHT22;8717;53.588;10.176;2023-01-29T15:49:29;3.00;99.90
17202;DHT22;8717;53.588;10.176;2023-01-29T15:51:58;3.00;99.90
17202;DHT22;8717;53.588;10.176;2023-01-29T15:54:29;3.00;99.90
17202;DHT22;8717;53.588;10.176;2023-01-29T15:56:58;3.00;99.90
17202;DHT22;8717;53.588;10.176;2023-01-29T15:59:29;3.00;99.90
17202;DHT22;8717;53.588;10.176;2023-01-29T16:02:17;2.90;99.90
17202;DHT22;8717;53.588;10.176;2023-01-29T16:04:44;2.90;99.90
17202;DHT22;8717;53.588;10.176;2023-01-29T16:07:11;3.00;99.90
17202;DHT22;8717;53.588;10.176;2023-01-29T16:09:39;2.90;99.90
17202;DHT22;8717;53.588;10.176;2023-01-29T16:12:10;2.90;99.90
17202;DHT22;8717;53.588;10.176;2023-01-29T16:14:37;2.90;99.90
17202;DHT22;8717;53.588;10.176;2023-01-29T16:17:24;2.90;99.90
17202;DHT22;8717;53.588;10.176;2023-01-29T16:19:55;2.90;99.90
17202;DHT22;8717;53.588;10.176;2023-01-29T16:22:22;2.90;99.90